sensor_id;sensor_type;location;lat;lon;timestamp;temperature;humidity
23122;DHT22;11730;51.248;22.534;2022-09-09T00:00:15;12.00;99.90
23122;DHT22;11730;51.248;22.534;2022-09-09T00:05:36;12.00;99.90
23122;DHT22;11730;51.248;22.534;2022-09-09T00:08:09;11.90;99.90
23122;DHT22;11730;51.248;22.534;2022-09-09T00:10:39;12.00;99.90
23122;DHT22;11730;51.248;22.534;2022-09-09T00:13:22;11.90;99.90
23122;DHT22;11730;51.248;22.534;2022-09-09T00:16:02;11.90;99.90
23122;DHT22;11730;51.248;22.534;2022-09-09T00:18:54;12.00;99.90
23122;DHT22;11730;51.248;22.534;2022-09-09T00:21:35;11.90;99.90
23122;DHT22;11730;51.248;22.534;2022-09-09T00:24:22;11.90;99.90
23122;DHT22;11730;51.248;22.534;2022-09-09T00:26:56;11.90;99.90
23122;DHT22;11730;51.248;22.534;2022-09-09T00:32:11;11.90;99.90
23122;DHT22;11730;51.248;22.534;2022-09-09T00:34:51;11.80;99.90
23122;DHT22;11730;51.248;22.534;2022-09-09T00:37:20;11.80;99.90
23122;DHT22;11730;51.248;22.534;2022-09-09T00:39:49;11.90;99.90
23122;DHT22;11730;51.248;22.534;2022-09-09T00:42:24;11.80;99.90
23122;DHT22;11730;51.248;22.534;2022-09-09T00:47:52;11.70;99.90
23122;DHT22;11730;51.248;22.534;2022-09-09T00:59:34;11.60;99.90
23122;DHT22;11730;51.248;22.534;2022-09-09T01:01:41;11.60;99.90
23122;DHT22;11730;51.248;22.534;2022-09-09T01:04:14;11.60;99.90
23122;DHT22;11730;51.248;22.534;2022-09-09T01:06:45;11.50;99.90
23122;DHT22;11730;51.248;22.534;2022-09-09T01:09:29;11.50;99.90
23122;DHT22;11730;51.248;22.534;2022-09-09T01:17:05;11.50;99.90
23122;DHT22;11730;51.248;22.534;2022-09-09T01:19:52;11.50;99.90
23122;DHT22;11730;51.248;22.534;2022-09-09T01:27:44;11.60;99.90
23122;DHT22;11730;51.248;22.534;2022-09-09T01:30:13;11.50;99.90
23122;DHT22;11730;51.248;22.534;2022-09-09T01:32:53;11.50;99.90
23122;DHT22;11730;51.248;22.534;2022-09-09T01:37:53;11.40;99.90
23122;DHT22;11730;51.248;22.534;2022-09-09T01:40:21;11.40;99.90
23122;DHT22;11730;51.248;22.534;2022-09-09T01:42:48;11.40;99.90
23122;DHT22;11730;51.248;22.534;2022-09-09T01:45:15;11.40;99.90
23122;DHT22;11730;51.248;22.534;2022-09-09T01:47:42;11.30;99.90
23122;DHT22;11730;51.248;22.534;2022-09-09T01:50:12;11.30;99.90
23122;DHT22;11730;51.248;22.534;2022-09-09T01:52:40;11.40;99.90
23122;DHT22;11730;51.248;22.534;2022-09-09T01:55:08;11.30;99.90
23122;DHT22;11730;51.248;22.534;2022-09-09T02:00:26;11.40;99.90
23122;DHT22;11730;51.248;22.534;2022-09-09T02:03:05;11.40;99.90
23122;DHT22;11730;51.248;22.534;2022-09-09T02:05:40;11.40;99.90
23122;DHT22;11730;51.248;22.534;2022-09-09T02:08:10;11.40;99.90
23122;DHT22;11730;51.248;22.534;2022-09-09T02:10:53;11.30;99.90
23122;DHT22;11730;51.248;22.534;2022-09-09T02:13:22;11.30;99.90
23122;DHT22;11730;51.248;22.534;2022-09-09T02:16:03;11.40;99.90
23122;DHT22;11730;51.248;22.534;2022-09-09T02:18:57;11.30;99.90
23122;DHT22;11730;51.248;22.534;2022-09-09T02:21:29;11.30;99.90
23122;DHT22;11730;51.248;22.534;2022-09-09T02:23:59;11.40;99.90
23122;DHT22;11730;51.248;22.534;2022-09-09T02:26:27;11.40;99.90
23122;DHT22;11730;51.248;22.534;2022-09-09T02:28:57;11.30;99.90
23122;DHT22;11730;51.248;22.534;2022-09-09T02:31:26;11.20;99.90
23122;DHT22;11730;51.248;22.534;2022-09-09T02:33:59;11.40;99.90
23122;DHT22;11730;51.248;22.534;2022-09-09T02:36:31;11.40;99.90
23122;DHT22;11730;51.248;22.534;2022-09-09T02:39:00;11.30;99.90
23122;DHT22;11730;51.248;22.534;2022-09-09T02:41:31;11.30;99.90
23122;DHT22;11730;51.248;22.534;2022-09-09T02:43:59;11.30;99.90
23122;DHT22;11730;51.248;22.534;2022-09-09T02:46:58;11.30;99.90
23122;DHT22;11730;51.248;22.534;2022-09-09T02:49:44;11.40;99.90
23122;DHT22;11730;51.248;22.534;2022-09-09T02:52:20;11.40;99.90
23122;DHT22;11730;51.248;22.534;2022-09-09T02:54:50;11.40;99.90
23122;DHT22;11730;51.248;22.534;2022-09-09T02:57:26;11.40;99.90
23122;DHT22;11730;51.248;22.534;2022-09-09T02:59:59;11.40;99.90
23122;DHT22;11730;51.248;22.534;2022-09-09T03:02:28;11.30;99.90
23122;DHT22;11730;51.248;22.534;2022-09-09T03:04:55;11.30;99.90
23122;DHT22;11730;51.248;22.534;2022-09-09T03:07:22;11.30;99.90
23122;DHT22;11730;51.248;22.534;2022-09-09T03:09:48;11.30;99.90
23122;DHT22;11730;51.248;22.534;2022-09-09T03:12:15;11.30;99.90
23122;DHT22;11730;51.248;22.534;2022-09-09T03:14:43;11.40;99.90
23122;DHT22;11730;51.248;22.534;2022-09-09T03:17:12;11.30;99.90
23122;DHT22;11730;51.248;22.534;2022-09-09T03:19:39;11.40;99.90
23122;DHT22;11730;51.248;22.534;2022-09-09T03:22:06;11.30;99.90
23122;DHT22;11730;51.248;22.534;2022-09-09T03:24:35;11.40;99.90
23122;DHT22;11730;51.248;22.534;2022-09-09T03:27:01;11.40;99.90
23122;DHT22;11730;51.248;22.534;2022-09-09T03:29:28;11.50;99.90
23122;DHT22;11730;51.248;22.534;2022-09-09T03:31:55;11.40;99.90
23122;DHT22;11730;51.248;22.534;2022-09-09T03:34:22;11.50;99.90
23122;DHT22;11730;51.248;22.534;2022-09-09T03:36:49;11.60;99.90
23122;DHT22;11730;51.248;22.534;2022-09-09T03:39:17;11.60;99.90
23122;DHT22;11730;51.248;22.534;2022-09-09T03:41:44;11.50;99.90
23122;DHT22;11730;51.248;22.534;2022-09-09T03:44:11;11.40;99.90
23122;DHT22;11730;51.248;22.534;2022-09-09T03:46:38;11.50;99.90
23122;DHT22;11730;51.248;22.534;2022-09-09T03:49:05;11.50;99.90
23122;DHT22;11730;51.248;22.534;2022-09-09T03:51:32;11.50;99.90
23122;DHT22;11730;51.248;22.534;2022-09-09T03:54:03;11.50;99.90
23122;DHT22;11730;51.248;22.534;2022-09-09T03:56:31;11.40;99.90
23122;DHT22;11730;51.248;22.534;2022-09-09T03:58:58;11.50;99.90
23122;DHT22;11730;51.248;22.534;2022-09-09T04:01:26;11.60;99.90
23122;DHT22;11730;51.248;22.534;2022-09-09T04:03:53;11.50;99.90
23122;DHT22;11730;51.248;22.534;2022-09-09T04:06:25;11.50;99.90
23122;DHT22;11730;51.248;22.534;2022-09-09T04:08:52;11.50;99.90
23122;DHT22;11730;51.248;22.534;2022-09-09T04:11:19;11.60;99.90
23122;DHT22;11730;51.248;22.534;2022-09-09T04:13:46;11.70;99.90
23122;DHT22;11730;51.248;22.534;2022-09-09T04:16:13;11.60;99.90
23122;DHT22;11730;51.248;22.534;2022-09-09T04:18:42;11.70;99.90
23122;DHT22;11730;51.248;22.534;2022-09-09T04:21:10;11.50;99.90
23122;DHT22;11730;51.248;22.534;2022-09-09T04:23:39;11.50;99.90
23122;DHT22;11730;51.248;22.534;2022-09-09T04:26:06;11.40;99.90
23122;DHT22;11730;51.248;22.534;2022-09-09T04:28:35;11.50;99.90
23122;DHT22;11730;51.248;22.534;2022-09-09T04:31:07;11.50;99.90
23122;DHT22;11730;51.248;22.534;2022-09-09T04:33:35;11.40;99.90
23122;DHT22;11730;51.248;22.534;2022-09-09T04:36:06;11.60;99.90
23122;DHT22;11730;51.248;22.534;2022-09-09T04:38:34;11.70;99.90
23122;DHT22;11730;51.248;22.534;2022-09-09T04:41:02;11.80;99.90
23122;DHT22;11730;51.248;22.534;2022-09-09T04:43:29;11.80;99.90
23122;DHT22;11730;51.248;22.534;2022-09-09T04:45:57;11.60;99.90
23122;DHT22;11730;51.248;22.534;2022-09-09T04:48:26;11.60;99.90
23122;DHT22;11730;51.248;22.534;2022-09-09T04:50:58;11.60;99.90
23122;DHT22;11730;51.248;22.534;2022-09-09T04:53:25;11.70;99.90
23122;DHT22;11730;51.248;22.534;2022-09-09T04:56:00;11.70;99.90
23122;DHT22;11730;51.248;22.534;2022-09-09T04:58:28;11.70;99.90
23122;DHT22;11730;51.248;22.534;2022-09-09T05:01:12;11.80;99.90
23122;DHT22;11730;51.248;22.534;2022-09-09T05:03:40;11.80;99.90
23122;DHT22;11730;51.248;22.534;2022-09-09T05:06:09;11.70;99.90
23122;DHT22;11730;51.248;22.534;2022-09-09T05:08:41;11.80;99.90
23122;DHT22;11730;51.248;22.534;2022-09-09T05:11:26;11.80;99.90
23122;DHT22;11730;51.248;22.534;2022-09-09T05:13:53;11.90;99.90
23122;DHT22;11730;51.248;22.534;2022-09-09T05:16:21;11.80;99.90
23122;DHT22;11730;51.248;22.534;2022-09-09T05:18:49;12.00;99.90
23122;DHT22;11730;51.248;22.534;2022-09-09T05:21:22;11.90;99.90
23122;DHT22;11730;51.248;22.534;2022-09-09T05:23:49;11.90;99.90
23122;DHT22;11730;51.248;22.534;2022-09-09T05:26:20;11.90;99.90
23122;DHT22;11730;51.248;22.534;2022-09-09T05:28:47;11.90;99.90
23122;DHT22;11730;51.248;22.534;2022-09-09T05:31:16;11.90;99.90
23122;DHT22;11730;51.248;22.534;2022-09-09T05:33:45;12.00;99.90
23122;DHT22;11730;51.248;22.534;2022-09-09T05:36:15;11.90;99.90
23122;DHT22;11730;51.248;22.534;2022-09-09T05:38:43;11.90;99.90
23122;DHT22;11730;51.248;22.534;2022-09-09T05:41:11;12.00;99.90
23122;DHT22;11730;51.248;22.534;2022-09-09T05:43:38;12.00;99.90
23122;DHT22;11730;51.248;22.534;2022-09-09T05:46:10;11.90;99.90
23122;DHT22;11730;51.248;22.534;2022-09-09T05:48:41;11.90;99.90
23122;DHT22;11730;51.248;22.534;2022-09-09T05:51:12;12.00;99.90
23122;DHT22;11730;51.248;22.534;2022-09-09T05:53:39;11.90;99.90
23122;DHT22;11730;51.248;22.534;2022-09-09T05:56:09;11.90;99.90
23122;DHT22;11730;51.248;22.534;2022-09-09T05:58:37;11.90;99.90
23122;DHT22;11730;51.248;22.534;2022-09-09T06:01:13;11.80;99.90
23122;DHT22;11730;51.248;22.534;2022-09-09T06:03:42;11.80;99.90
23122;DHT22;11730;51.248;22.534;2022-09-09T06:06:15;11.80;99.90
23122;DHT22;11730;51.248;22.534;2022-09-09T06:08:43;11.90;99.90
23122;DHT22;11730;51.248;22.534;2022-09-09T06:11:13;11.90;99.90
23122;DHT22;11730;51.248;22.534;2022-09-09T06:13:41;12.00;99.90
23122;DHT22;11730;51.248;22.534;2022-09-09T06:16:13;11.90;99.90
23122;DHT22;11730;51.248;22.534;2022-09-09T06:18:41;11.90;99.90
23122;DHT22;11730;51.248;22.534;2022-09-09T06:21:40;12.00;99.90
23122;DHT22;11730;51.248;22.534;2022-09-09T06:24:07;12.00;99.90
23122;DHT22;11730;51.248;22.534;2022-09-09T06:26:36;12.10;99.90
23122;DHT22;11730;51.248;22.534;2022-09-09T06:29:04;12.20;99.90
23122;DHT22;11730;51.248;22.534;2022-09-09T06:31:33;12.30;99.90
23122;DHT22;11730;51.248;22.534;2022-09-09T06:34:01;12.30;99.90
23122;DHT22;11730;51.248;22.534;2022-09-09T06:36:30;12.30;99.90
23122;DHT22;11730;51.248;22.534;2022-09-09T06:38:59;12.40;99.90
23122;DHT22;11730;51.248;22.534;2022-09-09T06:41:28;12.30;99.90
23122;DHT22;11730;51.248;22.534;2022-09-09T06:43:55;12.30;99.90
23122;DHT22;11730;51.248;22.534;2022-09-09T06:46:27;12.20;99.90
23122;DHT22;11730;51.248;22.534;2022-09-09T06:48:55;12.30;99.90
23122;DHT22;11730;51.248;22.534;2022-09-09T06:51:34;12.20;99.90
23122;DHT22;11730;51.248;22.534;2022-09-09T06:54:02;12.20;99.90
23122;DHT22;11730;51.248;22.534;2022-09-09T06:56:34;12.20;99.90
23122;DHT22;11730;51.248;22.534;2022-09-09T06:59:04;12.10;99.90
23122;DHT22;11730;51.248;22.534;2022-09-09T07:01:33;12.10;99.90
23122;DHT22;11730;51.248;22.534;2022-09-09T07:04:01;12.20;99.90
23122;DHT22;11730;51.248;22.534;2022-09-09T07:06:32;12.20;99.90
23122;DHT22;11730;51.248;22.534;2022-09-09T07:09:02;12.20;99.90
23122;DHT22;11730;51.248;22.534;2022-09-09T07:11:33;12.30;99.90
23122;DHT22;11730;51.248;22.534;2022-09-09T07:14:01;12.30;99.90
23122;DHT22;11730;51.248;22.534;2022-09-09T07:16:28;12.20;99.90
23122;DHT22;11730;51.248;22.534;2022-09-09T07:18:56;12.30;99.90
23122;DHT22;11730;51.248;22.534;2022-09-09T07:21:29;12.30;99.90
23122;DHT22;11730;51.248;22.534;2022-09-09T07:23:56;12.30;99.90
23122;DHT22;11730;51.248;22.534;2022-09-09T07:26:27;12.40;99.90
23122;DHT22;11730;51.248;22.534;2022-09-09T07:28:54;12.30;99.90
23122;DHT22;11730;51.248;22.534;2022-09-09T07:31:25;12.20;99.90
23122;DHT22;11730;51.248;22.534;2022-09-09T07:33:53;12.30;99.90
23122;DHT22;11730;51.248;22.534;2022-09-09T07:36:26;12.40;99.90
23122;DHT22;11730;51.248;22.534;2022-09-09T07:39:10;12.40;99.90
23122;DHT22;11730;51.248;22.534;2022-09-09T07:41:45;12.40;99.90
23122;DHT22;11730;51.248;22.534;2022-09-09T07:44:18;12.50;99.90
23122;DHT22;11730;51.248;22.534;2022-09-09T07:46:48;12.40;99.90
23122;DHT22;11730;51.248;22.534;2022-09-09T07:49:15;12.50;99.90
23122;DHT22;11730;51.248;22.534;2022-09-09T07:51:44;12.60;99.90
23122;DHT22;11730;51.248;22.534;2022-09-09T07:54:13;12.30;99.90
23122;DHT22;11730;51.248;22.534;2022-09-09T07:56:42;12.20;99.90
23122;DHT22;11730;51.248;22.534;2022-09-09T07:59:09;12.30;99.90
23122;DHT22;11730;51.248;22.534;2022-09-09T08:01:45;12.30;99.90
23122;DHT22;11730;51.248;22.534;2022-09-09T08:04:18;12.60;99.90
23122;DHT22;11730;51.248;22.534;2022-09-09T08:06:48;12.50;99.90
23122;DHT22;11730;51.248;22.534;2022-09-09T08:09:16;12.50;99.90
23122;DHT22;11730;51.248;22.534;2022-09-09T08:11:43;12.50;99.90
23122;DHT22;11730;51.248;22.534;2022-09-09T08:14:11;12.30;99.90
23122;DHT22;11730;51.248;22.534;2022-09-09T08:16:41;12.20;99.90
23122;DHT22;11730;51.248;22.534;2022-09-09T08:19:09;12.30;99.90
23122;DHT22;11730;51.248;22.534;2022-09-09T08:21:38;12.40;99.90
23122;DHT22;11730;51.248;22.534;2022-09-09T08:24:08;12.40;99.90
23122;DHT22;11730;51.248;22.534;2022-09-09T08:26:42;12.50;99.90
23122;DHT22;11730;51.248;22.534;2022-09-09T08:29:11;12.50;99.90
23122;DHT22;11730;51.248;22.534;2022-09-09T08:31:40;12.40;99.90
23122;DHT22;11730;51.248;22.534;2022-09-09T08:34:09;12.40;99.90
23122;DHT22;11730;51.248;22.534;2022-09-09T08:36:39;12.30;99.90
23122;DHT22;11730;51.248;22.534;2022-09-09T08:39:10;12.50;99.90
23122;DHT22;11730;51.248;22.534;2022-09-09T08:52:02;12.40;99.90
23122;DHT22;11730;51.248;22.534;2022-09-09T08:54:34;12.50;99.90
23122;DHT22;11730;51.248;22.534;2022-09-09T08:57:26;12.50;99.90
23122;DHT22;11730;51.248;22.534;2022-09-09T08:59:55;12.60;99.90
23122;DHT22;11730;51.248;22.534;2022-09-09T09:05:34;12.70;99.90
23122;DHT22;11730;51.248;22.534;2022-09-09T09:10:55;12.70;99.90
23122;DHT22;11730;51.248;22.534;2022-09-09T09:13:41;12.80;99.90
23122;DHT22;11730;51.248;22.534;2022-09-09T09:16:29;12.80;99.90
23122;DHT22;11730;51.248;22.534;2022-09-09T09:19:02;12.90;99.90
23122;DHT22;11730;51.248;22.534;2022-09-09T09:21:45;12.90;99.90
23122;DHT22;11730;51.248;22.534;2022-09-09T09:24:18;12.80;99.90
23122;DHT22;11730;51.248;22.534;2022-09-09T09:26:47;12.90;99.90
23122;DHT22;11730;51.248;22.534;2022-09-09T09:29:17;12.90;99.90
23122;DHT22;11730;51.248;22.534;2022-09-09T09:31:52;12.80;99.90
23122;DHT22;11730;51.248;22.534;2022-09-09T09:34:22;12.90;99.90
23122;DHT22;11730;51.248;22.534;2022-09-09T09:36:57;12.80;99.90
23122;DHT22;11730;51.248;22.534;2022-09-09T09:39:26;12.90;99.90
23122;DHT22;11730;51.248;22.534;2022-09-09T09:42:16;13.00;99.90
23122;DHT22;11730;51.248;22.534;2022-09-09T09:44:48;13.10;99.90
23122;DHT22;11730;51.248;22.534;2022-09-09T09:47:20;13.10;99.90
23122;DHT22;11730;51.248;22.534;2022-09-09T09:49:55;13.10;99.90
23122;DHT22;11730;51.248;22.534;2022-09-09T09:52:28;13.20;99.90
23122;DHT22;11730;51.248;22.534;2022-09-09T09:54:57;13.10;99.90
23122;DHT22;11730;51.248;22.534;2022-09-09T09:57:33;13.20;99.90
23122;DHT22;11730;51.248;22.534;2022-09-09T10:00:22;13.20;99.90
23122;DHT22;11730;51.248;22.534;2022-09-09T10:02:50;13.10;99.90
23122;DHT22;11730;51.248;22.534;2022-09-09T10:05:24;13.20;99.90
23122;DHT22;11730;51.248;22.534;2022-09-09T10:08:11;13.20;99.90
23122;DHT22;11730;51.248;22.534;2022-09-09T10:16:22;13.10;99.90
23122;DHT22;11730;51.248;22.534;2022-09-09T10:19:15;13.20;99.90
23122;DHT22;11730;51.248;22.534;2022-09-09T10:22:15;13.30;99.90
23122;DHT22;11730;51.248;22.534;2022-09-09T10:30:07;13.40;99.90
23122;DHT22;11730;51.248;22.534;2022-09-09T10:54:13;13.70;99.90
23122;DHT22;11730;51.248;22.534;2022-09-09T10:56:45;13.60;99.90
23122;DHT22;11730;51.248;22.534;2022-09-09T10:59:17;13.70;99.90
23122;DHT22;11730;51.248;22.534;2022-09-09T11:02:01;13.60;99.90
23122;DHT22;11730;51.248;22.534;2022-09-09T11:07:08;13.80;99.90
23122;DHT22;11730;51.248;22.534;2022-09-09T11:09:49;13.90;99.90
23122;DHT22;11730;51.248;22.534;2022-09-09T11:12:23;13.80;99.90
23122;DHT22;11730;51.248;22.534;2022-09-09T11:15:39;13.80;99.90
23122;DHT22;11730;51.248;22.534;2022-09-09T11:17:52;13.90;99.90
23122;DHT22;11730;51.248;22.534;2022-09-09T11:20:22;13.90;99.90
23122;DHT22;11730;51.248;22.534;2022-09-09T11:23:11;13.90;99.90
23122;DHT22;11730;51.248;22.534;2022-09-09T11:25:43;14.10;99.90
23122;DHT22;11730;51.248;22.534;2022-09-09T11:44:40;13.80;99.90
23122;DHT22;11730;51.248;22.534;2022-09-09T11:47:22;14.10;99.90
23122;DHT22;11730;51.248;22.534;2022-09-09T11:49:53;14.10;99.90
23122;DHT22;11730;51.248;22.534;2022-09-09T11:54:49;14.00;99.90
23122;DHT22;11730;51.248;22.534;2022-09-09T11:57:29;13.90;99.90
23122;DHT22;11730;51.248;22.534;2022-09-09T11:59:58;14.00;99.90
23122;DHT22;11730;51.248;22.534;2022-09-09T12:02:28;14.00;99.90
23122;DHT22;11730;51.248;22.534;2022-09-09T12:05:19;13.90;99.90
23122;DHT22;11730;51.248;22.534;2022-09-09T12:10:30;13.90;99.90
23122;DHT22;11730;51.248;22.534;2022-09-09T12:13:28;14.10;99.90
23122;DHT22;11730;51.248;22.534;2022-09-09T12:16:01;14.10;99.90
23122;DHT22;11730;51.248;22.534;2022-09-09T12:23:51;14.00;99.90
23122;DHT22;11730;51.248;22.534;2022-09-09T12:26:35;14.00;99.90
23122;DHT22;11730;51.248;22.534;2022-09-09T12:32:06;14.00;99.90
23122;DHT22;11730;51.248;22.534;2022-09-09T12:34:44;14.10;99.90
23122;DHT22;11730;51.248;22.534;2022-09-09T12:40:28;14.20;99.90
23122;DHT22;11730;51.248;22.534;2022-09-09T12:42:54;14.30;99.90
23122;DHT22;11730;51.248;22.534;2022-09-09T12:45:27;14.20;99.90
23122;DHT22;11730;51.248;22.534;2022-09-09T12:50:30;14.30;99.90
23122;DHT22;11730;51.248;22.534;2022-09-09T12:53:01;14.40;99.90
23122;DHT22;11730;51.248;22.534;2022-09-09T12:55:31;14.40;99.90
23122;DHT22;11730;51.248;22.534;2022-09-09T12:58:01;14.40;99.90
23122;DHT22;11730;51.248;22.534;2022-09-09T13:00:33;14.30;99.90
23122;DHT22;11730;51.248;22.534;2022-09-09T13:03:13;14.30;99.90
23122;DHT22;11730;51.248;22.534;2022-09-09T13:05:41;14.30;99.90
23122;DHT22;11730;51.248;22.534;2022-09-09T13:08:13;14.30;99.90
23122;DHT22;11730;51.248;22.534;2022-09-09T13:10:57;14.30;99.90
23122;DHT22;11730;51.248;22.534;2022-09-09T13:13:40;14.30;99.90
23122;DHT22;11730;51.248;22.534;2022-09-09T13:16:22;14.20;99.90
23122;DHT22;11730;51.248;22.534;2022-09-09T13:18:52;14.20;99.90
23122;DHT22;11730;51.248;22.534;2022-09-09T13:21:20;14.20;99.90
23122;DHT22;11730;51.248;22.534;2022-09-09T13:23:57;14.30;99.90
23122;DHT22;11730;51.248;22.534;2022-09-09T13:26:29;14.40;99.90
23122;DHT22;11730;51.248;22.534;2022-09-09T13:29:15;14.40;99.90
23122;DHT22;11730;51.248;22.534;2022-09-09T13:31:45;14.40;99.90
23122;DHT22;11730;51.248;22.534;2022-09-09T13:34:29;14.50;99.90
23122;DHT22;11730;51.248;22.534;2022-09-09T13:37:00;14.40;99.90
23122;DHT22;11730;51.248;22.534;2022-09-09T13:39:34;14.50;99.90
23122;DHT22;11730;51.248;22.534;2022-09-09T13:42:02;14.40;99.90
23122;DHT22;11730;51.248;22.534;2022-09-09T13:44:37;14.50;99.90
23122;DHT22;11730;51.248;22.534;2022-09-09T13:47:32;14.50;99.90
23122;DHT22;11730;51.248;22.534;2022-09-09T13:50:09;14.40;99.90
23122;DHT22;11730;51.248;22.534;2022-09-09T13:52:36;14.40;99.90
23122;DHT22;11730;51.248;22.534;2022-09-09T13:55:03;14.40;99.90
23122;DHT22;11730;51.248;22.534;2022-09-09T13:57:30;14.40;99.90
23122;DHT22;11730;51.248;22.534;2022-09-09T13:59:57;14.40;99.90
23122;DHT22;11730;51.248;22.534;2022-09-09T14:02:31;14.50;99.90
23122;DHT22;11730;51.248;22.534;2022-09-09T14:04:58;14.50;99.90
23122;DHT22;11730;51.248;22.534;2022-09-09T14:07:25;14.50;99.90
23122;DHT22;11730;51.248;22.534;2022-09-09T14:09:52;14.60;99.90
23122;DHT22;11730;51.248;22.534;2022-09-09T14:12:19;14.60;99.90
23122;DHT22;11730;51.248;22.534;2022-09-09T14:14:46;14.70;99.90
23122;DHT22;11730;51.248;22.534;2022-09-09T14:17:13;14.60;99.90
23122;DHT22;11730;51.248;22.534;2022-09-09T14:19:41;14.60;99.90
23122;DHT22;11730;51.248;22.534;2022-09-09T14:22:09;14.40;99.90
23122;DHT22;11730;51.248;22.534;2022-09-09T14:24:36;14.50;99.90
23122;DHT22;11730;51.248;22.534;2022-09-09T14:27:03;14.50;99.90
23122;DHT22;11730;51.248;22.534;2022-09-09T14:29:30;14.50;99.90
23122;DHT22;11730;51.248;22.534;2022-09-09T14:31:57;14.60;99.90
23122;DHT22;11730;51.248;22.534;2022-09-09T14:34:23;14.50;99.90
23122;DHT22;11730;51.248;22.534;2022-09-09T14:36:50;14.50;99.90
23122;DHT22;11730;51.248;22.534;2022-09-09T14:39:17;14.50;99.90
23122;DHT22;11730;51.248;22.534;2022-09-09T14:41:44;14.40;99.90
23122;DHT22;11730;51.248;22.534;2022-09-09T14:44:12;14.50;99.90
23122;DHT22;11730;51.248;22.534;2022-09-09T14:46:39;14.50;99.90
23122;DHT22;11730;51.248;22.534;2022-09-09T14:49:06;14.60;99.90
23122;DHT22;11730;51.248;22.534;2022-09-09T14:51:32;14.50;99.90
23122;DHT22;11730;51.248;22.534;2022-09-09T14:54:00;14.50;99.90
23122;DHT22;11730;51.248;22.534;2022-09-09T14:56:31;14.50;99.90
23122;DHT22;11730;51.248;22.534;2022-09-09T14:58:59;14.50;99.90
23122;DHT22;11730;51.248;22.534;2022-09-09T15:01:28;14.50;99.90
23122;DHT22;11730;51.248;22.534;2022-09-09T15:06:26;14.40;99.90
23122;DHT22;11730;51.248;22.534;2022-09-09T15:08:54;14.40;99.90
23122;DHT22;11730;51.248;22.534;2022-09-09T15:11:26;14.40;99.90
23122;DHT22;11730;51.248;22.534;2022-09-09T15:13:54;14.40;99.90
23122;DHT22;11730;51.248;22.534;2022-09-09T15:16:23;14.50;99.90
23122;DHT22;11730;51.248;22.534;2022-09-09T15:18:53;14.50;99.90
23122;DHT22;11730;51.248;22.534;2022-09-09T15:21:23;14.40;99.90
23122;DHT22;11730;51.248;22.534;2022-09-09T15:23:51;14.40;99.90
23122;DHT22;11730;51.248;22.534;2022-09-09T15:26:18;14.40;99.90
23122;DHT22;11730;51.248;22.534;2022-09-09T15:28:46;14.40;99.90
23122;DHT22;11730;51.248;22.534;2022-09-09T15:31:19;14.30;99.90
23122;DHT22;11730;51.248;22.534;2022-09-09T15:36:17;14.30;99.90
23122;DHT22;11730;51.248;22.534;2022-09-09T15:38:44;14.20;99.90
23122;DHT22;11730;51.248;22.534;2022-09-09T15:41:15;14.30;99.90
23122;DHT22;11730;51.248;22.534;2022-09-09T15:43:44;14.30;99.90
23122;DHT22;11730;51.248;22.534;2022-09-09T15:49:10;14.40;99.90
23122;DHT22;11730;51.248;22.534;2022-09-09T15:51:39;14.40;99.90
23122;DHT22;11730;51.248;22.534;2022-09-09T15:54:15;14.50;99.90
23122;DHT22;11730;51.248;22.534;2022-09-09T15:56:47;14.60;99.90
23122;DHT22;11730;51.248;22.534;2022-09-09T15:59:16;14.60;99.90
23122;DHT22;11730;51.248;22.534;2022-09-09T16:01:44;14.60;99.90
23122;DHT22;11730;51.248;22.534;2022-09-09T16:04:11;14.50;99.90
23122;DHT22;11730;51.248;22.534;2022-09-09T16:06:38;14.60;99.90
23122;DHT22;11730;51.248;22.534;2022-09-09T16:09:06;14.60;99.90
23122;DHT22;11730;51.248;22.534;2022-09-09T16:11:36;14.60;99.90
23122;DHT22;11730;51.248;22.534;2022-09-09T16:14:04;14.50;99.90
23122;DHT22;11730;51.248;22.534;2022-09-09T16:16:32;14.40;99.90
23122;DHT22;11730;51.248;22.534;2022-09-09T16:19:03;14.40;99.90
23122;DHT22;11730;51.248;22.534;2022-09-09T16:21:33;14.40;99.90
23122;DHT22;11730;51.248;22.534;2022-09-09T16:24:03;14.40;99.90
23122;DHT22;11730;51.248;22.534;2022-09-09T16:26:33;13.60;99.90
23122;DHT22;11730;51.248;22.534;2022-09-09T16:29:00;14.40;99.90
23122;DHT22;11730;51.248;22.534;2022-09-09T16:31:28;14.40;99.90
23122;DHT22;11730;51.248;22.534;2022-09-09T16:33:56;14.40;99.90
23122;DHT22;11730;51.248;22.534;2022-09-09T16:36:28;14.30;99.90
23122;DHT22;11730;51.248;22.534;2022-09-09T16:38:57;14.40;99.90
23122;DHT22;11730;51.248;22.534;2022-09-09T16:41:26;14.40;99.90
23122;DHT22;11730;51.248;22.534;2022-09-09T16:43:59;14.30;99.90
23122;DHT22;11730;51.248;22.534;2022-09-09T16:46:28;14.20;99.90
23122;DHT22;11730;51.248;22.534;2022-09-09T16:48:59;14.20;99.90
23122;DHT22;11730;51.248;22.534;2022-09-09T16:51:32;14.20;99.90
23122;DHT22;11730;51.248;22.534;2022-09-09T16:54:01;14.20;99.90
23122;DHT22;11730;51.248;22.534;2022-09-09T16:56:31;14.10;99.90
23122;DHT22;11730;51.248;22.534;2022-09-09T16:59:02;14.20;99.90
23122;DHT22;11730;51.248;22.534;2022-09-09T17:01:31;14.20;99.90
23122;DHT22;11730;51.248;22.534;2022-09-09T17:04:02;14.10;99.90
23122;DHT22;11730;51.248;22.534;2022-09-09T17:06:30;14.10;99.90
23122;DHT22;11730;51.248;22.534;2022-09-09T17:09:01;14.00;99.90
23122;DHT22;11730;51.248;22.534;2022-09-09T17:11:28;14.00;99.90
23122;DHT22;11730;51.248;22.534;2022-09-09T17:13:56;14.00;99.90
23122;DHT22;11730;51.248;22.534;2022-09-09T17:16:27;14.00;99.90
23122;DHT22;11730;51.248;22.534;2022-09-09T17:18:55;14.00;99.90
23122;DHT22;11730;51.248;22.534;2022-09-09T17:21:24;14.00;99.90
23122;DHT22;11730;51.248;22.534;2022-09-09T17:23:52;13.90;99.90
23122;DHT22;11730;51.248;22.534;2022-09-09T17:26:22;14.10;99.90
23122;DHT22;11730;51.248;22.534;2022-09-09T17:28:49;14.00;99.90
23122;DHT22;11730;51.248;22.534;2022-09-09T17:31:20;13.90;99.90
23122;DHT22;11730;51.248;22.534;2022-09-09T17:33:50;13.90;99.90
23122;DHT22;11730;51.248;22.534;2022-09-09T17:36:30;14.00;99.90
23122;DHT22;11730;51.248;22.534;2022-09-09T17:38:59;13.90;99.90
23122;DHT22;11730;51.248;22.534;2022-09-09T17:41:35;13.90;99.90
23122;DHT22;11730;51.248;22.534;2022-09-09T17:44:03;13.80;99.90
23122;DHT22;11730;51.248;22.534;2022-09-09T17:46:33;13.80;99.90
23122;DHT22;11730;51.248;22.534;2022-09-09T17:49:04;13.80;99.90